Time;durP1;ratioP1;P1;durP2;ratioP2;P2;SDS_P1;SDS_P2;PMS_P1;PMS_P2;Temp;Humidity;BMP_temperature;BMP_pressure;BME280_temperature;BME280_humidity;BME280_pressure;Samples;Min_cycle;Max_cycle;Signal;HPM_P1;HPM_P2
2022/08/24 00:01:00;0.00;0.00;0.62;0.00;0.00;0.62;2.90;1.77;;;29.20;24.50;;;;;;2242030;62;20371;-68
2022/08/24 00:03:46;0.00;0.00;0.62;0.00;0.00;0.62;2.23;1.70;;;29.30;24.50;;;;;;2242011;62;20581;-66
2022/08/24 00:06:31;0.00;0.00;0.62;0.00;0.00;0.62;6.10;2.03;;;29.30;24.50;;;;;;2240433;61;20422;-68
2022/08/24 00:09:16;0.00;0.00;0.62;0.00;0.00;0.62;3.40;2.00;;;29.30;24.50;;;;;;2242066;62;20366;-65
2022/08/24 00:12:03;0.00;0.00;0.62;0.00;0.00;0.62;2.13;1.67;;;29.30;24.50;;;;;;2241969;62;20367;-64
2022/08/24 00:14:49;0.00;0.00;0.62;0.00;0.00;0.62;5.63;1.80;;;29.40;24.60;;;;;;2241500;62;20657;-68
2022/08/24 00:17:34;0.00;0.00;0.62;0.00;0.00;0.62;3.33;2.30;;;29.40;24.60;;;;;;2247515;62;20485;-65
2022/08/24 00:20:19;0.00;0.00;0.62;0.00;0.00;0.62;3.47;2.20;;;29.40;24.60;;;;;;2241202;62;20382;-68
2022/08/24 00:23:04;0.00;0.00;0.62;0.00;0.00;0.62;2.47;1.97;;;29.40;24.60;;;;;;2242037;62;20391;-67
2022/08/24 00:25:50;0.00;0.00;0.62;0.00;0.00;0.62;2.10;1.40;;;29.50;24.70;;;;;;2241627;62;20399;-67
2022/08/24 00:28:36;0.00;0.00;0.62;0.00;0.00;0.62;5.20;2.30;;;29.50;24.70;;;;;;2241025;62;20495;-68
2022/08/24 00:31:22;0.00;0.00;0.62;0.00;0.00;0.62;2.10;1.70;;;29.50;24.70;;;;;;2241941;62;20639;-66
2022/08/24 00:34:07;0.00;0.00;0.62;0.00;0.00;0.62;2.87;1.80;;;29.60;24.70;;;;;;2241365;62;20661;-68
2022/08/24 00:36:52;0.00;0.00;0.62;0.00;0.00;0.62;2.53;1.90;;;29.60;24.70;;;;;;2240960;62;20774;-68
2022/08/24 00:39:36;0.00;0.00;0.62;0.00;0.00;0.62;7.20;1.83;;;29.60;24.70;;;;;;2241904;62;20402;-67
2022/08/24 00:42:21;0.00;0.00;0.62;0.00;0.00;0.62;2.77;1.77;;;29.70;24.80;;;;;;2241068;62;20579;-67
2022/08/24 00:45:11;0.00;0.00;0.62;0.00;0.00;0.62;2.37;1.77;;;29.70;24.80;;;;;;2241711;62;20367;-67
2022/08/24 00:48:04;0.00;0.00;0.62;0.00;0.00;0.62;2.20;1.67;;;29.70;24.80;;;;;;2252683;58;20401;-69
2022/08/24 00:50:54;0.00;0.00;0.62;0.00;0.00;0.62;2.17;1.93;;;29.70;24.80;;;;;;2241030;62;20367;-68
2022/08/24 00:53:44;0.00;0.00;0.62;0.00;0.00;0.62;3.57;2.07;;;29.80;24.80;;;;;;2241817;62;20398;-65
2022/08/24 00:56:34;0.00;0.00;0.62;0.00;0.00;0.62;2.50;1.93;;;29.80;24.80;;;;;;2241007;61;20474;-67
2022/08/24 00:59:25;0.00;0.00;0.62;0.00;0.00;0.62;2.13;1.63;;;29.80;24.80;;;;;;2241551;62;20383;-64
2022/08/24 01:02:17;0.00;0.00;0.62;0.00;0.00;0.62;2.53;1.70;;;29.80;24.80;;;;;;2241651;62;20483;-66
2022/08/24 01:05:08;0.00;0.00;0.62;0.00;0.00;0.62;2.00;1.60;;;29.80;24.80;;;;;;2240615;62;20398;-68
2022/08/24 01:07:53;0.00;0.00;0.62;0.00;0.00;0.62;3.17;1.90;;;29.80;24.80;;;;;;2241710;62;20473;-67
2022/08/24 01:10:46;0.00;0.00;0.62;0.00;0.00;0.62;2.50;1.93;;;29.90;24.90;;;;;;2241311;62;20438;-69
2022/08/24 01:13:31;0.00;0.00;0.62;0.00;0.00;0.62;2.20;1.77;;;29.90;24.90;;;;;;2240657;62;20359;-68
2022/08/24 01:18:48;0.00;0.00;0.62;0.00;0.00;0.62;2.70;1.80;;;29.90;24.80;;;;;;2240891;61;20437;-65
2022/08/24 01:19:33;0.00;0.00;0.62;0.00;0.00;0.62;3.07;2.00;;;29.90;24.80;;;;;;2279520;54;20774;-69
2022/08/24 01:22:39;0.00;0.00;0.62;0.00;0.00;0.62;3.60;1.90;;;29.90;24.80;;;;;;2241330;62;20556;-66
2022/08/24 01:25:28;0.00;0.00;0.62;0.00;0.00;0.62;4.40;2.60;;;29.90;24.80;;;;;;2241003;62;20422;-63
2022/08/24 01:28:19;0.00;0.00;0.62;0.00;0.00;0.62;3.23;2.20;;;29.90;24.80;;;;;;2240936;62;20770;-65
2022/08/24 01:31:04;0.00;0.00;0.62;0.00;0.00;0.62;2.20;1.93;;;29.90;24.90;;;;;;2241834;62;20362;-66
2022/08/24 01:33:51;0.00;0.00;0.62;0.00;0.00;0.62;2.40;1.70;;;29.90;24.90;;;;;;2241341;62;20369;-66
2022/08/24 01:36:40;0.00;0.00;0.62;0.00;0.00;0.62;3.30;2.50;;;29.90;24.90;;;;;;2241251;61;20631;-68
2022/08/24 01:39:30;0.00;0.00;0.62;0.00;0.00;0.62;4.30;2.27;;;29.90;24.90;;;;;;2241652;62;20386;-67
2022/08/24 01:42:18;0.00;0.00;0.62;0.00;0.00;0.62;2.70;2.20;;;29.90;24.90;;;;;;2240582;62;20370;-65
2022/08/24 01:45:05;0.00;0.00;0.62;0.00;0.00;0.62;3.60;2.30;;;29.80;24.80;;;;;;2241137;62;20366;-64
2022/08/24 01:47:50;0.00;0.00;0.62;0.00;0.00;0.62;2.90;2.20;;;29.90;24.90;;;;;;2609457;46;20609;-68
2022/08/24 01:50:35;0.00;0.00;0.62;0.00;0.00;0.62;3.60;2.13;;;29.90;24.90;;;;;;2236626;62;20367;-66
2022/08/24 01:53:19;0.00;0.00;0.62;0.00;0.00;0.62;2.20;1.97;;;29.80;24.80;;;;;;2237559;62;20624;-68
2022/08/24 01:56:05;0.00;0.00;0.62;0.00;0.00;0.62;3.33;1.73;;;29.80;24.80;;;;;;2238883;62;20402;-65
2022/08/24 01:58:53;0.00;0.00;0.62;0.00;0.00;0.62;3.40;2.20;;;29.80;24.80;;;;;;2241265;62;20554;-69
2022/08/24 02:01:42;0.00;0.00;0.62;0.00;0.00;0.62;2.10;1.67;;;29.80;24.80;;;;;;2241211;62;20387;-66
2022/08/24 02:04:27;0.00;0.00;0.62;0.00;0.00;0.62;2.53;1.83;;;29.80;24.80;;;;;;2240559;62;20434;-64
2022/08/24 02:07:13;0.00;0.00;0.62;0.00;0.00;0.62;2.40;1.80;;;29.90;24.90;;;;;;2240807;62;20660;-67
2022/08/24 02:09:58;0.00;0.00;0.62;0.00;0.00;0.62;4.20;1.80;;;29.90;24.90;;;;;;2241617;62;20407;-65
2022/08/24 02:12:56;0.00;0.00;0.62;0.00;0.00;0.62;3.40;1.83;;;29.90;24.90;;;;;;2237851;62;20362;-65
2022/08/24 02:15:43;0.00;0.00;0.62;0.00;0.00;0.62;2.60;2.10;;;29.90;24.90;;;;;;2241618;61;20629;-68
2022/08/24 02:18:28;0.00;0.00;0.62;0.00;0.00;0.62;2.23;2.03;;;29.90;24.90;;;;;;2241225;62;20389;-66
2022/08/24 02:21:15;0.00;0.00;0.62;0.00;0.00;0.62;2.47;2.07;;;29.90;24.90;;;;;;2241958;62;20406;-68
2022/08/24 02:24:00;0.00;0.00;0.62;0.00;0.00;0.62;2.60;1.90;;;29.90;24.90;;;;;;2242351;62;20366;-69
2022/08/24 02:26:45;0.00;0.00;0.62;0.00;0.00;0.62;2.30;1.63;;;29.90;24.90;;;;;;2240887;61;20629;-66
2022/08/24 02:29:31;0.00;0.00;0.62;0.00;0.00;0.62;3.03;1.80;;;30.00;24.90;;;;;;2241916;62;20397;-67
2022/08/24 02:32:18;0.00;0.00;0.62;0.00;0.00;0.62;2.70;2.00;;;30.00;24.90;;;;;;2241907;62;20702;-68
2022/08/24 02:35:04;0.00;0.00;0.62;0.00;0.00;0.62;2.90;1.60;;;30.00;24.90;;;;;;2240965;62;20452;-68
2022/08/24 02:37:49;0.00;0.00;0.62;0.00;0.00;0.62;2.50;2.20;;;30.00;24.90;;;;;;2614583;46;20448;-64
2022/08/24 02:40:35;0.00;0.00;0.62;0.00;0.00;0.62;2.17;1.80;;;30.00;24.90;;;;;;2237380;62;20366;-67
2022/08/24 02:43:20;0.00;0.00;0.62;0.00;0.00;0.62;3.93;1.97;;;30.00;24.90;;;;;;2237900;62;20367;-68
2022/08/24 02:46:05;0.00;0.00;0.62;0.00;0.00;0.62;4.40;2.03;;;30.00;24.90;;;;;;2240197;61;20740;-65
2022/08/24 02:48:52;0.00;0.00;0.62;0.00;0.00;0.62;1.73;1.53;;;30.00;24.90;;;;;;2241032;62;20445;-68
2022/08/24 02:51:40;0.00;0.00;0.62;0.00;0.00;0.62;1.90;1.50;;;30.00;24.90;;;;;;2241894;62;20491;-69
2022/08/24 02:54:25;0.00;0.00;0.62;0.00;0.00;0.62;2.53;1.83;;;30.10;25.00;;;;;;2239015;62;20942;-64
2022/08/24 02:57:10;0.00;0.00;0.62;0.00;0.00;0.62;2.23;1.80;;;30.10;24.90;;;;;;2240863;62;20406;-68
2022/08/24 02:59:55;0.00;0.00;0.62;0.00;0.00;0.62;2.30;1.83;;;30.10;24.90;;;;;;2241712;62;20366;-66
2022/08/24 03:02:40;0.00;0.00;0.62;0.00;0.00;0.62;2.30;1.90;;;30.10;24.90;;;;;;2241333;62;20362;-67
2022/08/24 03:05:27;0.00;0.00;0.62;0.00;0.00;0.62;2.10;1.60;;;30.10;24.90;;;;;;2241591;61;20408;-67
2022/08/24 03:08:13;0.00;0.00;0.62;0.00;0.00;0.62;3.40;2.10;;;30.10;25.00;;;;;;2241547;62;20426;-68
2022/08/24 03:11:00;0.00;0.00;0.62;0.00;0.00;0.62;2.47;1.90;;;30.10;25.00;;;;;;2241085;62;20386;-70
2022/08/24 03:13:45;0.00;0.00;0.62;0.00;0.00;0.62;3.20;2.10;;;30.10;25.00;;;;;;2241773;62;20586;-64
2022/08/24 03:16:31;0.00;0.00;0.62;0.00;0.00;0.62;3.00;2.10;;;30.10;25.00;;;;;;2241212;61;20462;-68
2022/08/24 03:19:16;0.00;0.00;0.62;0.00;0.00;0.62;3.30;2.00;;;30.10;25.00;;;;;;2241130;62;20394;-65
2022/08/24 03:22:04;0.00;0.00;0.62;0.00;0.00;0.62;2.77;2.10;;;30.10;25.00;;;;;;2241664;62;20391;-66
2022/08/24 03:24:49;0.00;0.00;0.62;0.00;0.00;0.62;2.50;2.00;;;30.10;25.00;;;;;;2241240;62;20378;-66
2022/08/24 03:27:34;0.00;0.00;0.62;0.00;0.00;0.62;2.63;2.20;;;30.00;24.90;;;;;;2241618;62;20418;-66
2022/08/24 03:30:21;0.00;0.00;0.62;0.00;0.00;0.62;3.33;2.40;;;30.00;24.90;;;;;;2241591;62;20771;-65
2022/08/24 03:33:06;0.00;0.00;0.62;0.00;0.00;0.62;3.30;2.70;;;30.10;25.00;;;;;;2241014;62;20388;-68
2022/08/24 03:35:52;0.00;0.00;0.62;0.00;0.00;0.62;3.50;2.40;;;30.10;25.00;;;;;;2241422;61;20401;-66
2022/08/24 03:38:41;0.00;0.00;0.62;0.00;0.00;0.62;4.47;2.77;;;30.00;24.90;;;;;;2241528;62;20537;-69
2022/08/24 03:41:26;0.00;0.00;0.62;0.00;0.00;0.62;3.23;2.77;;;30.00;24.90;;;;;;2241309;62;20597;-69
2022/08/24 03:44:11;0.00;0.00;0.62;0.00;0.00;0.62;2.73;2.17;;;30.00;24.90;;;;;;2241695;62;20589;-65
2022/08/24 03:46:57;0.00;0.00;0.62;0.00;0.00;0.62;2.70;2.23;;;30.00;24.90;;;;;;2240969;61;20411;-66
2022/08/24 03:49:44;0.00;0.00;0.62;0.00;0.00;0.62;3.63;2.60;;;30.00;24.90;;;;;;2241632;62;20366;-66
2022/08/24 03:52:29;0.00;0.00;0.62;0.00;0.00;0.62;2.60;2.00;;;30.00;24.90;;;;;;2241482;62;20362;-69
2022/08/24 03:55:16;0.00;0.00;0.62;0.00;0.00;0.62;3.00;2.70;;;30.00;24.90;;;;;;2240733;62;20649;-70
2022/08/24 03:58:01;0.00;0.00;0.62;0.00;0.00;0.62;3.10;2.30;;;30.00;25.40;;;;;;2241499;62;20374;-68
2022/08/24 04:00:46;0.00;0.00;0.62;0.00;0.00;0.62;2.93;2.17;;;30.00;24.90;;;;;;2241562;62;20731;-65
2022/08/24 04:03:35;0.00;0.00;0.62;0.00;0.00;0.62;2.73;2.00;;;30.00;24.90;;;;;;2241024;62;20394;-67
2022/08/24 04:06:22;0.00;0.00;0.62;0.00;0.00;0.62;2.83;2.13;;;30.00;24.90;;;;;;2241124;61;20395;-69
2022/08/24 04:09:06;0.00;0.00;0.62;0.00;0.00;0.62;3.60;2.50;;;30.00;24.90;;;;;;2241238;62;20405;-65
2022/08/24 04:11:56;0.00;0.00;0.62;0.00;0.00;0.62;2.20;2.00;;;30.00;24.90;;;;;;2241527;62;20633;-68
2022/08/24 04:14:43;0.00;0.00;0.62;0.00;0.00;0.62;2.33;2.00;;;30.00;24.90;;;;;;2241439;62;20414;-67
2022/08/24 04:17:34;0.00;0.00;0.62;0.00;0.00;0.62;2.37;2.00;;;30.00;24.90;;;;;;2253603;58;20641;-67
2022/08/24 04:20:19;0.00;0.00;0.62;0.00;0.00;0.62;2.87;2.30;;;30.00;24.90;;;;;;2241530;62;20370;-70
2022/08/24 04:23:04;0.00;0.00;0.62;0.00;0.00;0.62;6.07;2.93;;;30.00;24.90;;;;;;2241474;62;20586;-66
2022/08/24 04:25:49;0.00;0.00;0.62;0.00;0.00;0.62;2.73;2.47;;;30.00;24.90;;;;;;2240621;61;20437;-65
2022/08/24 04:28:35;0.00;0.00;0.62;0.00;0.00;0.62;3.80;2.63;;;30.00;24.90;;;;;;2241441;62;20458;-64
2022/08/24 04:31:20;0.00;0.00;0.62;0.00;0.00;0.62;3.07;2.67;;;30.00;24.90;;;;;;2241215;62;20585;-69
2022/08/24 04:34:06;0.00;0.00;0.62;0.00;0.00;0.62;2.83;2.60;;;30.00;24.90;;;;;;2241365;62;20647;-70
2022/08/24 04:36:51;0.00;0.00;0.62;0.00;0.00;0.62;3.90;2.33;;;30.00;24.90;;;;;;2241027;62;20410;-67
2022/08/24 04:39:36;0.00;0.00;0.62;0.00;0.00;0.62;3.93;2.73;;;30.00;24.90;;;;;;2240732;62;20644;-67
2022/08/24 04:42:24;0.00;0.00;0.62;0.00;0.00;0.62;2.97;2.10;;;30.00;24.90;;;;;;2241836;62;20358;-69
2022/08/24 04:45:11;0.00;0.00;0.62;0.00;0.00;0.62;4.80;2.87;;;30.00;24.90;;;;;;2241182;62;20367;-69
2022/08/24 04:47:56;0.00;0.00;0.62;0.00;0.00;0.62;2.50;2.03;;;30.00;24.90;;;;;;2467554;54;20755;-67
2022/08/24 04:50:43;0.00;0.00;0.62;0.00;0.00;0.62;3.90;2.90;;;30.00;24.90;;;;;;2237475;62;20419;-69
2022/08/24 04:53:28;0.00;0.00;0.62;0.00;0.00;0.62;2.73;2.30;;;30.00;24.90;;;;;;2237137;62;20584;-68
2022/08/24 04:56:17;0.00;0.00;0.62;0.00;0.00;0.62;2.40;2.20;;;30.00;24.90;;;;;;2239557;61;20426;-73
2022/08/24 04:59:04;0.00;0.00;0.62;0.00;0.00;0.62;5.60;2.50;;;30.00;24.90;;;;;;2241529;62;20390;-70
2022/08/24 05:01:51;0.00;0.00;0.62;0.00;0.00;0.62;4.33;2.30;;;30.00;24.90;;;;;;2240936;62;20652;-73
2022/08/24 05:04:36;0.00;0.00;0.62;0.00;0.00;0.62;3.40;2.30;;;30.00;24.90;;;;;;2244229;61;20375;-71
2022/08/24 05:07:21;0.00;0.00;0.62;0.00;0.00;0.62;3.10;2.33;;;30.00;24.90;;;;;;2287599;58;20405;-72
2022/08/24 05:10:11;0.00;0.00;0.62;0.00;0.00;0.62;2.70;2.20;;;30.00;25.00;;;;;;2240809;62;20370;-69
2022/08/24 05:12:56;0.00;0.00;0.62;0.00;0.00;0.62;3.93;2.10;;;30.00;25.10;;;;;;2241325;62;20390;-72
2022/08/24 05:15:43;0.00;0.00;0.62;0.00;0.00;0.62;2.73;2.53;;;30.00;25.10;;;;;;2241121;61;20723;-62
2022/08/24 05:18:32;0.00;0.00;0.62;0.00;0.00;0.62;3.10;2.70;;;30.00;25.10;;;;;;2241323;62;20498;-67
2022/08/24 05:21:20;0.00;0.00;0.62;0.00;0.00;0.62;2.50;2.20;;;30.00;25.10;;;;;;2241604;62;20370;-65
2022/08/24 05:24:05;0.00;0.00;0.62;0.00;0.00;0.62;2.80;2.20;;;30.00;25.10;;;;;;2240725;62;20585;-66
2022/08/24 05:26:51;0.00;0.00;0.62;0.00;0.00;0.62;3.00;2.40;;;30.00;25.10;;;;;;2241105;61;20439;-64
2022/08/24 05:29:37;0.00;0.00;0.62;0.00;0.00;0.62;2.70;2.20;;;30.00;25.20;;;;;;2241280;62;20406;-71
2022/08/24 05:32:22;0.00;0.00;0.62;0.00;0.00;0.62;3.83;2.43;;;30.00;25.20;;;;;;2240755;62;20366;-68
2022/08/24 05:35:11;0.00;0.00;0.62;0.00;0.00;0.62;3.97;2.57;;;30.00;25.30;;;;;;2241114;62;20399;-67
2022/08/24 05:37:58;0.00;0.00;0.62;0.00;0.00;0.62;3.53;2.60;;;30.00;25.40;;;;;;2471132;54;20391;-73
2022/08/24 05:40:50;0.00;0.00;0.62;0.00;0.00;0.62;3.87;2.53;;;30.00;25.50;;;;;;2240093;62;20355;-71
2022/08/24 05:43:39;0.00;0.00;0.62;0.00;0.00;0.62;2.97;2.67;;;30.00;25.50;;;;;;2237364;62;20387;-71
2022/08/24 05:46:25;0.00;0.00;0.62;0.00;0.00;0.62;6.73;2.80;;;30.00;25.60;;;;;;2240371;61;20496;-66
2022/08/24 05:49:11;0.00;0.00;0.62;0.00;0.00;0.62;3.83;3.00;;;29.90;25.50;;;;;;2241193;62;20370;-63
2022/08/24 05:51:57;0.00;0.00;0.62;0.00;0.00;0.62;5.40;2.27;;;29.90;25.60;;;;;;2241357;62;20406;-65
2022/08/24 05:54:43;0.00;0.00;0.62;0.00;0.00;0.62;3.33;2.40;;;29.90;25.60;;;;;;2241228;62;20691;-72
2022/08/24 05:57:33;0.00;0.00;0.62;0.00;0.00;0.62;4.00;2.63;;;29.90;25.60;;;;;;2268659;58;20410;-66
2022/08/24 06:00:30;0.00;0.00;0.62;0.00;0.00;0.62;4.30;3.43;;;29.90;25.70;;;;;;2240809;62;20366;-76
2022/08/24 06:03:16;0.00;0.00;0.62;0.00;0.00;0.62;3.20;2.70;;;29.90;25.70;;;;;;2241693;62;20726;-70
2022/08/24 06:06:09;0.00;0.00;0.62;0.00;0.00;0.62;4.83;2.30;;;29.90;25.80;;;;;;2240914;61;20431;-69
2022/08/24 06:08:58;0.00;0.00;0.62;0.00;0.00;0.62;5.37;2.60;;;29.90;25.80;;;;;;2240685;62;20386;-68
2022/08/24 06:11:45;0.00;0.00;0.62;0.00;0.00;0.62;6.20;2.60;;;29.90;25.90;;;;;;2241171;62;20449;-62
2022/08/24 06:14:32;0.00;0.00;0.62;0.00;0.00;0.62;6.00;3.07;;;29.90;25.90;;;;;;2241136;62;20381;-71
2022/08/24 06:17:17;0.00;0.00;0.62;0.00;0.00;0.62;3.73;2.80;;;29.90;25.90;;;;;;2240733;62;20405;-74
2022/08/24 06:20:04;0.00;0.00;0.62;0.00;0.00;0.62;2.83;2.50;;;29.90;26.00;;;;;;2241276;62;20410;-70
2022/08/24 06:22:49;0.00;0.00;0.62;0.00;0.00;0.62;3.53;2.60;;;29.90;26.00;;;;;;2240919;62;20835;-65
2022/08/24 06:28:42;0.00;0.00;0.62;0.00;0.00;0.62;4.40;3.03;;;29.90;26.10;;;;;;2241478;62;20789;-72
2022/08/24 06:31:28;0.00;0.00;0.62;0.00;0.00;0.62;4.83;2.60;;;29.90;26.10;;;;;;2240694;62;20370;-74
2022/08/24 06:34:17;0.00;0.00;0.62;0.00;0.00;0.62;2.33;2.13;;;29.90;26.10;;;;;;2241044;62;20394;-70
2022/08/24 06:37:02;0.00;0.00;0.62;0.00;0.00;0.62;2.70;2.47;;;29.90;26.10;;;;;;2240565;61;20425;-69
2022/08/24 06:39:47;0.00;0.00;0.62;0.00;0.00;0.62;4.23;2.67;;;29.90;26.20;;;;;;2240929;62;20366;-71
2022/08/24 06:42:34;0.00;0.00;0.62;0.00;0.00;0.62;2.93;2.57;;;29.90;26.10;;;;;;2241124;62;20427;-73
2022/08/24 06:45:20;0.00;0.00;0.62;0.00;0.00;0.62;3.60;2.77;;;29.90;26.10;;;;;;2240255;61;20370;-74
2022/08/24 06:48:05;0.00;0.00;0.62;0.00;0.00;0.62;5.63;2.27;;;29.90;26.20;;;;;;2241423;62;20386;-73
2022/08/24 06:50:52;0.00;0.00;0.62;0.00;0.00;0.62;3.57;2.40;;;29.90;26.30;;;;;;2241147;62;20444;-63
2022/08/24 06:53:38;0.00;0.00;0.62;0.00;0.00;0.62;2.70;2.33;;;29.90;26.30;;;;;;2240457;62;20362;-63
2022/08/24 06:56:24;0.00;0.00;0.62;0.00;0.00;0.62;4.80;2.50;;;29.90;26.30;;;;;;2240857;61;20754;-64
2022/08/24 06:59:11;0.00;0.00;0.62;0.00;0.00;0.62;4.90;2.43;;;29.90;26.30;;;;;;2241355;62;20374;-66
2022/08/24 07:01:56;0.00;0.00;0.62;0.00;0.00;0.62;3.33;2.43;;;29.90;26.30;;;;;;2241323;62;20596;-66
2022/08/24 07:04:44;0.00;0.00;0.62;0.00;0.00;0.62;3.30;2.67;;;30.00;26.40;;;;;;2241777;62;20370;-70
2022/08/24 07:07:48;0.00;0.00;0.62;0.00;0.00;0.62;3.37;2.50;;;30.00;26.40;;;;;;2265669;62;20450;-71
2022/08/24 07:10:33;0.00;0.00;0.62;0.00;0.00;0.62;7.90;3.67;;;30.00;26.40;;;;;;2237814;62;20367;-72
2022/08/24 07:13:18;0.00;0.00;0.62;0.00;0.00;0.62;3.27;2.50;;;30.00;26.50;;;;;;2238178;62;20367;-67
2022/08/24 07:16:05;0.00;0.00;0.62;0.00;0.00;0.62;4.17;2.63;;;30.00;26.50;;;;;;2239080;61;20738;-68
2022/08/24 07:18:53;0.00;0.00;0.62;0.00;0.00;0.62;2.87;2.50;;;30.00;26.60;;;;;;2241671;62;20410;-71
2022/08/24 07:21:39;0.00;0.00;0.62;0.00;0.00;0.62;5.00;2.77;;;30.00;26.60;;;;;;2241263;62;20523;-75
2022/08/24 07:24:24;0.00;0.00;0.62;0.00;0.00;0.62;2.60;2.10;;;30.00;26.60;;;;;;2242084;62;20381;-68
2022/08/24 07:27:09;0.00;0.00;0.62;0.00;0.00;0.62;3.00;2.43;;;30.00;26.50;;;;;;2241541;62;20386;-66
2022/08/24 07:29:54;0.00;0.00;0.62;0.00;0.00;0.62;2.70;2.07;;;30.00;26.60;;;;;;2241405;62;20366;-69
2022/08/24 07:32:40;0.00;0.00;0.62;0.00;0.00;0.62;3.50;2.70;;;30.00;26.50;;;;;;2241659;62;20399;-71
2022/08/24 07:35:27;0.00;0.00;0.62;0.00;0.00;0.62;2.50;2.10;;;30.10;26.70;;;;;;2241754;62;20593;-69
2022/08/24 07:38:12;0.00;0.00;0.62;0.00;0.00;0.62;3.80;2.23;;;30.10;26.70;;;;;;2263886;58;20386;-74
2022/08/24 07:40:59;0.00;0.00;0.62;0.00;0.00;0.62;2.70;2.37;;;30.10;26.60;;;;;;2241692;62;20411;-69
2022/08/24 07:43:46;0.00;0.00;0.62;0.00;0.00;0.62;2.63;2.43;;;30.10;26.70;;;;;;2241742;62;20410;-69
2022/08/24 07:46:32;0.00;0.00;0.62;0.00;0.00;0.62;2.80;2.50;;;30.10;26.70;;;;;;2241227;61;20375;-66
2022/08/24 07:49:18;0.00;0.00;0.62;0.00;0.00;0.62;3.47;2.33;;;30.10;26.70;;;;;;2241428;62;20366;-66
2022/08/24 07:52:04;0.00;0.00;0.62;0.00;0.00;0.62;4.73;3.17;;;30.20;26.80;;;;;;2241315;62;20374;-66
2022/08/24 07:54:48;0.00;0.00;0.62;0.00;0.00;0.62;4.00;3.30;;;30.20;26.80;;;;;;2241583;62;20362;-65
2022/08/24 07:57:33;0.00;0.00;0.62;0.00;0.00;0.62;2.90;2.50;;;30.20;26.80;;;;;;2256209;58;20442;-66
2022/08/24 08:00:21;0.00;0.00;0.62;0.00;0.00;0.62;3.40;3.10;;;30.20;26.80;;;;;;2243688;61;20362;-65
2022/08/24 08:03:11;0.00;0.00;0.62;0.00;0.00;0.62;3.90;2.60;;;30.20;26.80;;;;;;2241555;62;20566;-65
2022/08/24 08:06:05;0.00;0.00;0.62;0.00;0.00;0.62;3.57;3.17;;;30.30;26.90;;;;;;2241405;62;20382;-65
2022/08/24 08:08:50;0.00;0.00;0.62;0.00;0.00;0.62;3.13;2.80;;;30.30;27.00;;;;;;2241589;62;20422;-72
2022/08/24 08:11:35;0.00;0.00;0.62;0.00;0.00;0.62;4.13;2.97;;;30.30;27.40;;;;;;2241633;62;20366;-66
2022/08/24 08:14:20;0.00;0.00;0.62;0.00;0.00;0.62;3.67;3.30;;;30.30;26.90;;;;;;2240747;62;20471;-66
2022/08/24 08:17:06;0.00;0.00;0.62;0.00;0.00;0.62;3.30;2.80;;;30.30;26.90;;;;;;2241247;61;20405;-65
2022/08/24 08:19:51;0.00;0.00;0.62;0.00;0.00;0.62;3.60;2.53;;;30.40;26.90;;;;;;2241564;62;20366;-66
2022/08/24 08:26:19;0.00;0.00;0.62;0.00;0.00;0.62;3.73;2.90;;;30.40;26.90;;;;;;2241265;62;20371;-69
2022/08/24 08:29:20;0.00;0.00;0.62;0.00;0.00;0.62;3.30;2.73;;;30.40;27.00;;;;;;2240954;62;20377;-69
2022/08/24 08:32:05;0.00;0.00;0.62;0.00;0.00;0.62;2.83;2.53;;;30.50;27.10;;;;;;2241617;62;20370;-77
2022/08/24 08:34:50;0.00;0.00;0.62;0.00;0.00;0.62;3.00;2.57;;;30.50;27.00;;;;;;2241877;62;20398;-64
2022/08/24 08:37:37;0.00;0.00;0.62;0.00;0.00;0.62;3.10;2.70;;;30.50;27.00;;;;;;2249633;58;20397;-67
2022/08/24 08:40:39;0.00;0.00;0.62;0.00;0.00;0.62;5.77;3.20;;;30.50;26.90;;;;;;2241501;62;20374;-69
2022/08/24 08:43:40;0.00;0.00;0.62;0.00;0.00;0.62;4.50;2.93;;;30.50;26.90;;;;;;2241200;62;20366;-71
2022/08/24 08:46:42;0.00;0.00;0.62;0.00;0.00;0.62;3.23;2.93;;;30.60;27.10;;;;;;2241159;61;20370;-68
2022/08/24 08:50:01;0.00;0.00;0.62;0.00;0.00;0.62;4.20;2.60;;;30.60;27.00;;;;;;2239088;62;20370;-68
2022/08/24 08:53:29;0.00;0.00;0.62;0.00;0.00;0.62;3.60;2.70;;;30.60;27.00;;;;;;2237267;62;20363;-71
2022/08/24 08:56:39;0.00;0.00;0.62;0.00;0.00;0.62;2.60;2.20;;;30.60;27.00;;;;;;2239550;61;20402;-66
2022/08/24 08:59:43;0.00;0.00;0.62;0.00;0.00;0.62;2.77;2.17;;;30.70;26.90;;;;;;2240770;62;20358;-67
2022/08/24 09:03:02;0.00;0.00;0.62;0.00;0.00;0.62;3.13;2.30;;;30.70;26.90;;;;;;2241181;62;20714;-67
2022/08/24 09:06:33;0.00;0.00;0.62;0.00;0.00;0.62;4.57;2.73;;;30.70;26.80;;;;;;2240122;61;20937;-67
2022/08/24 09:09:42;0.00;0.00;0.62;0.00;0.00;0.62;3.30;2.67;;;30.70;26.80;;;;;;2241265;62;20382;-69
2022/08/24 09:12:48;0.00;0.00;0.62;0.00;0.00;0.62;2.97;2.50;;;30.70;26.70;;;;;;2241234;62;20390;-68
2022/08/24 09:16:00;0.00;0.00;0.62;0.00;0.00;0.62;5.53;2.40;;;30.70;26.70;;;;;;2241155;61;20382;-64
2022/08/24 09:19:01;0.00;0.00;0.62;0.00;0.00;0.62;3.30;2.37;;;30.80;26.70;;;;;;2241337;62;20455;-64
2022/08/24 09:22:02;0.00;0.00;0.62;0.00;0.00;0.62;2.63;2.30;;;30.80;26.70;;;;;;2240682;62;20392;-64
2022/08/24 09:25:06;0.00;0.00;0.62;0.00;0.00;0.62;2.57;2.23;;;30.80;26.60;;;;;;2241251;62;20382;-63
2022/08/24 09:28:12;0.00;0.00;0.62;0.00;0.00;0.62;2.63;2.43;;;30.80;26.60;;;;;;2240327;62;20517;-64
2022/08/24 09:31:36;0.00;0.00;0.62;0.00;0.00;0.62;2.60;2.40;;;30.80;26.50;;;;;;2241728;62;20398;-63
2022/08/24 09:34:36;0.00;0.00;0.62;0.00;0.00;0.62;3.30;2.47;;;30.90;26.60;;;;;;2240751;61;20378;-63
2022/08/24 09:37:36;0.00;0.00;0.62;0.00;0.00;0.62;4.30;3.10;;;30.90;26.50;;;;;;2289914;58;20467;-65
2022/08/24 09:40:41;0.00;0.00;0.62;0.00;0.00;0.62;3.30;2.40;;;30.90;26.50;;;;;;2241763;62;20371;-65
2022/08/24 09:44:23;0.00;0.00;0.62;0.00;0.00;0.62;3.90;2.40;;;30.90;26.50;;;;;;2240986;62;20382;-65
2022/08/24 09:48:02;0.00;0.00;0.62;0.00;0.00;0.62;2.27;2.00;;;30.90;26.40;;;;;;2241785;62;20394;-64
2022/08/24 09:52:03;0.00;0.00;0.62;0.00;0.00;0.62;2.90;2.50;;;30.90;26.40;;;;;;2241151;62;20385;-65
2022/08/24 09:55:25;0.00;0.00;0.62;0.00;0.00;0.62;3.00;2.20;;;31.00;26.40;;;;;;2234276;61;20372;-65
2022/08/24 09:58:25;0.00;0.00;0.62;0.00;0.00;0.62;3.43;2.33;;;31.00;26.30;;;;;;2254664;61;20406;-65
2022/08/24 10:01:21;0.00;0.00;0.62;0.00;0.00;0.62;2.90;2.60;;;31.00;26.30;;;;;;2243342;62;20374;-64
2022/08/24 10:04:20;0.00;0.00;0.62;0.00;0.00;0.62;2.60;2.30;;;31.00;26.30;;;;;;2242947;62;20366;-65
2022/08/24 10:07:16;0.00;0.00;0.62;0.00;0.00;0.62;3.83;2.47;;;31.00;26.30;;;;;;2241894;61;20413;-63
2022/08/24 10:10:25;0.00;0.00;0.62;0.00;0.00;0.62;5.60;2.73;;;31.00;26.10;;;;;;2241847;62;20627;-65
2022/08/24 10:13:25;0.00;0.00;0.62;0.00;0.00;0.62;3.40;2.60;;;31.00;26.10;;;;;;2241357;62;20568;-63
2022/08/24 10:16:26;0.00;0.00;0.62;0.00;0.00;0.62;2.80;2.50;;;31.00;26.10;;;;;;2241274;62;20378;-65
2022/08/24 10:19:43;0.00;0.00;0.62;0.00;0.00;0.62;3.47;2.60;;;31.10;26.20;;;;;;2241690;62;20370;-66
2022/08/24 10:22:52;0.00;0.00;0.62;0.00;0.00;0.62;4.90;2.40;;;31.10;26.10;;;;;;2243890;62;20431;-65
2022/08/24 10:25:43;0.00;0.00;0.62;0.00;0.00;0.62;3.33;2.53;;;31.10;26.10;;;;;;2241994;62;20370;-65
2022/08/24 10:29:02;0.00;0.00;0.62;0.00;0.00;0.62;2.40;2.20;;;31.10;26.00;;;;;;2241130;62;20406;-63
2022/08/24 10:32:05;0.00;0.00;0.62;0.00;0.00;0.62;4.97;2.40;;;31.10;26.00;;;;;;2241592;62;20366;-66
2022/08/24 10:35:02;0.00;0.00;0.62;0.00;0.00;0.62;2.63;2.40;;;31.20;26.00;;;;;;2240874;61;20436;-65
2022/08/24 10:42:10;0.00;0.00;0.62;0.00;0.00;0.62;3.77;2.27;;;31.20;25.90;;;;;;2242005;62;20390;-65
2022/08/24 10:45:14;0.00;0.00;0.62;0.00;0.00;0.62;4.53;2.60;;;31.20;25.80;;;;;;2242212;62;20378;-64
2022/08/24 10:48:25;0.00;0.00;0.62;0.00;0.00;0.62;4.00;2.60;;;31.20;25.70;;;;;;2238167;62;20439;-65
2022/08/24 10:51:28;0.00;0.00;0.62;0.00;0.00;0.62;2.60;2.03;;;31.30;25.60;;;;;;2238146;62;20590;-64
2022/08/24 10:54:13;0.00;0.00;0.62;0.00;0.00;0.62;2.70;2.30;;;31.30;25.60;;;;;;2238697;62;20727;-65
2022/08/24 10:57:07;0.00;0.00;0.62;0.00;0.00;0.62;3.63;2.30;;;31.30;25.60;;;;;;2240912;61;20397;-65
2022/08/24 11:00:04;0.00;0.00;0.62;0.00;0.00;0.62;4.33;2.00;;;31.30;25.60;;;;;;2242242;62;20362;-64
2022/08/24 11:03:07;0.00;0.00;0.62;0.00;0.00;0.62;2.37;1.77;;;31.30;25.60;;;;;;2242205;62;20418;-64
2022/08/24 11:05:55;0.00;0.00;0.62;0.00;0.00;0.62;2.63;1.87;;;31.40;25.70;;;;;;2241641;61;20365;-64
2022/08/24 11:08:51;0.00;0.00;0.62;0.00;0.00;0.62;2.70;2.27;;;31.40;25.70;;;;;;2242160;62;20450;-63
2022/08/24 11:11:39;0.00;0.00;0.62;0.00;0.00;0.62;2.50;2.23;;;31.40;25.70;;;;;;2241409;62;20419;-65
2022/08/24 11:14:28;0.00;0.00;0.62;0.00;0.00;0.62;2.70;2.30;;;31.40;25.60;;;;;;2242206;62;20362;-64
2022/08/24 11:17:16;0.00;0.00;0.62;0.00;0.00;0.62;2.70;2.07;;;31.50;25.70;;;;;;2241883;62;20437;-65
2022/08/24 11:20:23;0.00;0.00;0.62;0.00;0.00;0.62;3.50;2.33;;;31.50;25.70;;;;;;2241503;62;20410;-65
2022/08/24 11:23:13;0.00;0.00;0.62;0.00;0.00;0.62;3.77;2.60;;;31.50;25.40;;;;;;2242028;62;20397;-65
2022/08/24 11:26:03;0.00;0.00;0.62;0.00;0.00;0.62;4.17;1.97;;;31.50;25.30;;;;;;2241436;61;20378;-65